3VA5 weather

Goose Hunt Farm Airport
Leesburg, Virginia, United States

Public forecast

Using degrees Fahrenheit for public forecast. Weather courtesy of forecast.io.

METAR (pilot weather report)

Closest report is Leesburg Executive Airport, 4.3 nm (8.0 km) NE. Retrieved 2019/05/23 02:35 UTC (12 minutes ago):

KJYO 230235Z AUTO 17007KT 10SM BKN085 20/11 A3025 RMK AO2

TAF (pilot weather forecast)

Forecast is more than 12 hours old.

Closest forecast is Washington Dulles International Airport, 9.4 nm (17.4 km) ESE. Retrieved 2019/05/22 00:39 UTC (1 day ago):

TAF KIAD 222337Z 2300/2406 17006KT P6SM SCT080 BKN250 FM230800 18008KT P6SM VCSH BKN050 FM231500 20008G16KT P6SM SCT050 BKN200 FM231800 21009G17KT P6SM VCTS BKN050CB FM232100 23010G18KT P6SM BKN050 FM240000 27008KT P6SM SCT060